sensor_id;sensor_type;location;lat;lon;timestamp;P1;durP1;ratioP1;P2;durP2;ratioP2
56599;SDS011;51832;48.152;11.530;2022-10-31T00:03:43;10.07;;;6.43;;
56599;SDS011;51832;48.152;11.530;2022-10-31T00:08:45;16.10;;;6.88;;
56599;SDS011;51832;48.152;11.530;2022-10-31T00:13:46;13.00;;;6.73;;
56599;SDS011;51832;48.152;11.530;2022-10-31T00:18:48;16.20;;;7.10;;
56599;SDS011;51832;48.152;11.530;2022-10-31T00:23:50;8.50;;;4.97;;
56599;SDS011;51832;48.152;11.530;2022-10-31T00:28:51;10.48;;;5.90;;
56599;SDS011;51832;48.152;11.530;2022-10-31T00:33:52;14.02;;;7.13;;
56599;SDS011;51832;48.152;11.530;2022-10-31T00:38:52;9.48;;;6.00;;
56599;SDS011;51832;48.152;11.530;2022-10-31T00:43:53;12.25;;;5.82;;
56599;SDS011;51832;48.152;11.530;2022-10-31T00:48:53;11.05;;;5.63;;
56599;SDS011;51832;48.152;11.530;2022-10-31T00:53:54;9.20;;;4.90;;
56599;SDS011;51832;48.152;11.530;2022-10-31T00:58:54;10.52;;;5.40;;
56599;SDS011;51832;48.152;11.530;2022-10-31T01:03:55;12.27;;;4.80;;
56599;SDS011;51832;48.152;11.530;2022-10-31T01:08:55;14.40;;;6.43;;
56599;SDS011;51832;48.152;11.530;2022-10-31T01:13:56;9.95;;;4.93;;
56599;SDS011;51832;48.152;11.530;2022-10-31T01:18:56;8.32;;;4.45;;
56599;SDS011;51832;48.152;11.530;2022-10-31T01:23:58;9.80;;;4.40;;
56599;SDS011;51832;48.152;11.530;2022-10-31T01:29:00;13.82;;;5.75;;
56599;SDS011;51832;48.152;11.530;2022-10-31T01:34:02;9.65;;;4.05;;
56599;SDS011;51832;48.152;11.530;2022-10-31T01:39:03;15.25;;;4.68;;
56599;SDS011;51832;48.152;11.530;2022-10-31T01:49:35;11.18;;;4.78;;
56599;SDS011;51832;48.152;11.530;2022-10-31T01:54:48;20.85;;;9.63;;
56599;SDS011;51832;48.152;11.530;2022-10-31T01:59:55;8.57;;;5.57;;
56599;SDS011;51832;48.152;11.530;2022-10-31T02:05:00;12.65;;;5.10;;
56599;SDS011;51832;48.152;11.530;2022-10-31T02:10:04;6.68;;;4.57;;
56599;SDS011;51832;48.152;11.530;2022-10-31T02:15:05;8.43;;;4.53;;
56599;SDS011;51832;48.152;11.530;2022-10-31T02:41:37;9.77;;;4.18;;
56599;SDS011;51832;48.152;11.530;2022-10-31T02:46:44;9.70;;;4.13;;
56599;SDS011;51832;48.152;11.530;2022-10-31T02:51:50;11.35;;;4.63;;
56599;SDS011;51832;48.152;11.530;2022-10-31T02:56:52;12.75;;;5.68;;
56599;SDS011;51832;48.152;11.530;2022-10-31T03:17:36;7.05;;;3.92;;
56599;SDS011;51832;48.152;11.530;2022-10-31T03:22:42;11.30;;;4.90;;
56599;SDS011;51832;48.152;11.530;2022-10-31T03:27:44;8.32;;;4.28;;
56599;SDS011;51832;48.152;11.530;2022-10-31T03:32:51;10.90;;;4.38;;
56599;SDS011;51832;48.152;11.530;2022-10-31T03:37:55;8.63;;;3.95;;
56599;SDS011;51832;48.152;11.530;2022-10-31T03:43:00;9.75;;;4.50;;
56599;SDS011;51832;48.152;11.530;2022-10-31T03:48:07;10.45;;;3.47;;
56599;SDS011;51832;48.152;11.530;2022-10-31T03:53:20;10.95;;;3.80;;
56599;SDS011;51832;48.152;11.530;2022-10-31T03:58:38;7.50;;;3.78;;
56599;SDS011;51832;48.152;11.530;2022-10-31T04:03:46;6.82;;;4.30;;
56599;SDS011;51832;48.152;11.530;2022-10-31T04:08:49;7.22;;;3.90;;
56599;SDS011;51832;48.152;11.530;2022-10-31T04:13:52;9.18;;;4.03;;
56599;SDS011;51832;48.152;11.530;2022-10-31T04:18:55;7.80;;;3.97;;
56599;SDS011;51832;48.152;11.530;2022-10-31T04:23:56;10.23;;;4.63;;
56599;SDS011;51832;48.152;11.530;2022-10-31T04:28:57;5.68;;;4.45;;
56599;SDS011;51832;48.152;11.530;2022-10-31T04:33:58;7.82;;;4.85;;
56599;SDS011;51832;48.152;11.530;2022-10-31T04:38:58;5.70;;;3.88;;
56599;SDS011;51832;48.152;11.530;2022-10-31T04:43:59;10.80;;;4.78;;
56599;SDS011;51832;48.152;11.530;2022-10-31T04:48:59;6.93;;;4.20;;
56599;SDS011;51832;48.152;11.530;2022-10-31T04:54:00;7.65;;;3.65;;
56599;SDS011;51832;48.152;11.530;2022-10-31T04:59:00;10.10;;;4.82;;
56599;SDS011;51832;48.152;11.530;2022-10-31T05:04:01;8.00;;;3.95;;
56599;SDS011;51832;48.152;11.530;2022-10-31T05:09:02;7.90;;;3.78;;
56599;SDS011;51832;48.152;11.530;2022-10-31T05:14:02;5.57;;;3.85;;
56599;SDS011;51832;48.152;11.530;2022-10-31T05:19:03;10.98;;;4.63;;
56599;SDS011;51832;48.152;11.530;2022-10-31T05:24:03;8.85;;;3.83;;
56599;SDS011;51832;48.152;11.530;2022-10-31T05:29:05;10.50;;;5.40;;
56599;SDS011;51832;48.152;11.530;2022-10-31T05:34:06;9.30;;;4.53;;
56599;SDS011;51832;48.152;11.530;2022-10-31T05:39:08;8.45;;;3.63;;
56599;SDS011;51832;48.152;11.530;2022-10-31T05:44:10;7.60;;;4.25;;
56599;SDS011;51832;48.152;11.530;2022-10-31T05:49:11;11.82;;;4.13;;
56599;SDS011;51832;48.152;11.530;2022-10-31T05:54:12;11.38;;;4.53;;
56599;SDS011;51832;48.152;11.530;2022-10-31T05:59:13;8.07;;;4.72;;
56599;SDS011;51832;48.152;11.530;2022-10-31T06:04:14;7.22;;;3.78;;
56599;SDS011;51832;48.152;11.530;2022-10-31T06:09:14;7.28;;;4.07;;
56599;SDS011;51832;48.152;11.530;2022-10-31T06:14:15;10.07;;;4.32;;
56599;SDS011;51832;48.152;11.530;2022-10-31T06:19:16;8.57;;;4.20;;
56599;SDS011;51832;48.152;11.530;2022-10-31T06:24:16;5.78;;;3.60;;
56599;SDS011;51832;48.152;11.530;2022-10-31T06:29:17;10.88;;;4.25;;
56599;SDS011;51832;48.152;11.530;2022-10-31T06:34:17;9.90;;;4.45;;
56599;SDS011;51832;48.152;11.530;2022-10-31T06:39:18;8.52;;;4.95;;
56599;SDS011;51832;48.152;11.530;2022-10-31T06:44:18;9.45;;;5.10;;
56599;SDS011;51832;48.152;11.530;2022-10-31T06:49:19;8.13;;;4.88;;
56599;SDS011;51832;48.152;11.530;2022-10-31T06:54:19;7.15;;;4.70;;
56599;SDS011;51832;48.152;11.530;2022-10-31T06:59:21;9.15;;;4.72;;
56599;SDS011;51832;48.152;11.530;2022-10-31T07:04:22;9.07;;;4.57;;
56599;SDS011;51832;48.152;11.530;2022-10-31T07:09:22;10.02;;;4.57;;
56599;SDS011;51832;48.152;11.530;2022-10-31T07:14:23;10.48;;;5.15;;
56599;SDS011;51832;48.152;11.530;2022-10-31T07:19:23;9.00;;;4.82;;
56599;SDS011;51832;48.152;11.530;2022-10-31T07:24:24;10.15;;;5.00;;
56599;SDS011;51832;48.152;11.530;2022-10-31T07:29:24;8.73;;;4.75;;
56599;SDS011;51832;48.152;11.530;2022-10-31T07:34:25;11.15;;;4.82;;
56599;SDS011;51832;48.152;11.530;2022-10-31T07:39:26;9.63;;;4.45;;
56599;SDS011;51832;48.152;11.530;2022-10-31T07:44:26;9.48;;;4.35;;
56599;SDS011;51832;48.152;11.530;2022-10-31T07:49:27;16.10;;;5.20;;
56599;SDS011;51832;48.152;11.530;2022-10-31T07:54:27;12.07;;;5.07;;
56599;SDS011;51832;48.152;11.530;2022-10-31T07:59:37;10.98;;;4.47;;
56599;SDS011;51832;48.152;11.530;2022-10-31T08:04:38;7.97;;;4.75;;
56599;SDS011;51832;48.152;11.530;2022-10-31T08:09:40;9.30;;;4.85;;
56599;SDS011;51832;48.152;11.530;2022-10-31T08:14:40;12.38;;;4.97;;
56599;SDS011;51832;48.152;11.530;2022-10-31T08:19:41;11.30;;;5.75;;
56599;SDS011;51832;48.152;11.530;2022-10-31T08:24:41;11.32;;;5.00;;
56599;SDS011;51832;48.152;11.530;2022-10-31T08:29:42;14.80;;;5.82;;
56599;SDS011;51832;48.152;11.530;2022-10-31T08:34:42;12.02;;;5.88;;
56599;SDS011;51832;48.152;11.530;2022-10-31T08:39:43;13.00;;;5.88;;
56599;SDS011;51832;48.152;11.530;2022-10-31T08:44:44;12.77;;;6.70;;
56599;SDS011;51832;48.152;11.530;2022-10-31T08:49:44;11.30;;;6.53;;
56599;SDS011;51832;48.152;11.530;2022-10-31T08:54:45;12.10;;;6.30;;
56599;SDS011;51832;48.152;11.530;2022-10-31T08:59:45;11.75;;;6.05;;
56599;SDS011;51832;48.152;11.530;2022-10-31T09:04:46;12.45;;;6.32;;
56599;SDS011;51832;48.152;11.530;2022-10-31T09:09:46;12.35;;;6.55;;
56599;SDS011;51832;48.152;11.530;2022-10-31T09:14:47;17.35;;;8.07;;
56599;SDS011;51832;48.152;11.530;2022-10-31T09:19:47;14.73;;;7.43;;
56599;SDS011;51832;48.152;11.530;2022-10-31T09:24:48;12.20;;;7.40;;
56599;SDS011;51832;48.152;11.530;2022-10-31T09:29:48;13.65;;;7.63;;
56599;SDS011;51832;48.152;11.530;2022-10-31T09:34:49;13.52;;;6.43;;
56599;SDS011;51832;48.152;11.530;2022-10-31T09:39:49;14.75;;;6.70;;
56599;SDS011;51832;48.152;11.530;2022-10-31T09:50:25;13.15;;;5.25;;
56599;SDS011;51832;48.152;11.530;2022-10-31T09:55:36;15.68;;;6.07;;
56599;SDS011;51832;48.152;11.530;2022-10-31T10:00:39;11.77;;;5.15;;
56599;SDS011;51832;48.152;11.530;2022-10-31T10:21:36;8.70;;;3.38;;
56599;SDS011;51832;48.152;11.530;2022-10-31T10:26:50;6.82;;;3.35;;
56599;SDS011;51832;48.152;11.530;2022-10-31T10:31:55;8.40;;;3.22;;
56599;SDS011;51832;48.152;11.530;2022-10-31T10:37:05;6.40;;;3.05;;
56599;SDS011;51832;48.152;11.530;2022-10-31T10:42:14;8.77;;;3.67;;
56599;SDS011;51832;48.152;11.530;2022-10-31T10:47:36;10.15;;;4.05;;
56599;SDS011;51832;48.152;11.530;2022-10-31T10:52:45;8.52;;;3.70;;
56599;SDS011;51832;48.152;11.530;2022-10-31T11:03:04;6.53;;;3.20;;
56599;SDS011;51832;48.152;11.530;2022-10-31T11:08:05;7.88;;;3.83;;
56599;SDS011;51832;48.152;11.530;2022-10-31T11:13:17;8.32;;;3.15;;
56599;SDS011;51832;48.152;11.530;2022-10-31T11:18:24;12.18;;;3.30;;
56599;SDS011;51832;48.152;11.530;2022-10-31T11:23:27;9.95;;;3.05;;
56599;SDS011;51832;48.152;11.530;2022-10-31T11:28:29;10.95;;;3.30;;
56599;SDS011;51832;48.152;11.530;2022-10-31T11:33:33;5.60;;;3.17;;
56599;SDS011;51832;48.152;11.530;2022-10-31T11:38:39;5.22;;;2.47;;
56599;SDS011;51832;48.152;11.530;2022-10-31T11:43:51;6.15;;;3.13;;
56599;SDS011;51832;48.152;11.530;2022-10-31T11:48:54;7.35;;;2.85;;
56599;SDS011;51832;48.152;11.530;2022-10-31T11:53:57;5.72;;;2.58;;
56599;SDS011;51832;48.152;11.530;2022-10-31T12:04:07;4.90;;;3.03;;
56599;SDS011;51832;48.152;11.530;2022-10-31T12:09:16;8.77;;;2.75;;
56599;SDS011;51832;48.152;11.530;2022-10-31T12:14:32;12.05;;;3.40;;
56599;SDS011;51832;48.152;11.530;2022-10-31T12:25:07;7.57;;;3.53;;
56599;SDS011;51832;48.152;11.530;2022-10-31T12:30:17;8.15;;;3.92;;
56599;SDS011;51832;48.152;11.530;2022-10-31T12:46:31;5.20;;;3.47;;
56599;SDS011;51832;48.152;11.530;2022-10-31T12:57:13;5.65;;;3.30;;
56599;SDS011;51832;48.152;11.530;2022-10-31T13:08:06;8.13;;;3.65;;
56599;SDS011;51832;48.152;11.530;2022-10-31T13:13:56;10.15;;;3.67;;
56599;SDS011;51832;48.152;11.530;2022-10-31T13:19:27;10.30;;;3.85;;
56599;SDS011;51832;48.152;11.530;2022-10-31T13:24:34;5.70;;;3.25;;
56599;SDS011;51832;48.152;11.530;2022-10-31T13:29:37;7.80;;;3.70;;
56599;SDS011;51832;48.152;11.530;2022-10-31T13:35:07;8.93;;;4.03;;
56599;SDS011;51832;48.152;11.530;2022-10-31T13:45:23;5.38;;;3.00;;
56599;SDS011;51832;48.152;11.530;2022-10-31T13:50:26;8.07;;;4.18;;
56599;SDS011;51832;48.152;11.530;2022-10-31T13:55:42;10.40;;;3.78;;
56599;SDS011;51832;48.152;11.530;2022-10-31T14:00:44;6.20;;;3.53;;
56599;SDS011;51832;48.152;11.530;2022-10-31T14:05:51;9.23;;;3.70;;
56599;SDS011;51832;48.152;11.530;2022-10-31T14:10:53;8.48;;;4.22;;
56599;SDS011;51832;48.152;11.530;2022-10-31T14:15:56;8.80;;;3.45;;
56599;SDS011;51832;48.152;11.530;2022-10-31T14:20:59;9.68;;;3.80;;
56599;SDS011;51832;48.152;11.530;2022-10-31T14:52:18;11.15;;;4.28;;
56599;SDS011;51832;48.152;11.530;2022-10-31T15:07:57;15.05;;;5.78;;
56599;SDS011;51832;48.152;11.530;2022-10-31T15:13:08;11.90;;;4.67;;
56599;SDS011;51832;48.152;11.530;2022-10-31T15:18:17;9.43;;;4.93;;
56599;SDS011;51832;48.152;11.530;2022-10-31T15:23:25;13.32;;;5.47;;
56599;SDS011;51832;48.152;11.530;2022-10-31T15:28:27;12.98;;;6.55;;
56599;SDS011;51832;48.152;11.530;2022-10-31T15:33:31;9.13;;;5.50;;
56599;SDS011;51832;48.152;11.530;2022-10-31T15:38:40;19.98;;;6.53;;
56599;SDS011;51832;48.152;11.530;2022-10-31T15:43:40;14.50;;;6.97;;
56599;SDS011;51832;48.152;11.530;2022-10-31T15:48:45;16.05;;;7.53;;
56599;SDS011;51832;48.152;11.530;2022-10-31T15:53:48;17.20;;;7.60;;
56599;SDS011;51832;48.152;11.530;2022-10-31T15:58:52;12.60;;;7.30;;
56599;SDS011;51832;48.152;11.530;2022-10-31T16:09:22;13.38;;;9.48;;
56599;SDS011;51832;48.152;11.530;2022-10-31T16:14:25;19.27;;;9.98;;
56599;SDS011;51832;48.152;11.530;2022-10-31T16:19:30;17.23;;;9.10;;
56599;SDS011;51832;48.152;11.530;2022-10-31T16:24:35;15.30;;;8.85;;
56599;SDS011;51832;48.152;11.530;2022-10-31T16:29:45;21.20;;;8.73;;
56599;SDS011;51832;48.152;11.530;2022-10-31T16:34:56;18.17;;;9.00;;
56599;SDS011;51832;48.152;11.530;2022-10-31T16:39:59;21.05;;;10.07;;
56599;SDS011;51832;48.152;11.530;2022-10-31T16:45:00;16.23;;;9.67;;
56599;SDS011;51832;48.152;11.530;2022-10-31T16:50:00;17.75;;;10.10;;
56599;SDS011;51832;48.152;11.530;2022-10-31T16:55:00;12.95;;;9.00;;
56599;SDS011;51832;48.152;11.530;2022-10-31T17:00:03;17.43;;;9.50;;
56599;SDS011;51832;48.152;11.530;2022-10-31T17:05:04;20.45;;;10.15;;
56599;SDS011;51832;48.152;11.530;2022-10-31T17:10:05;14.10;;;9.35;;
56599;SDS011;51832;48.152;11.530;2022-10-31T17:15:09;15.35;;;10.23;;
56599;SDS011;51832;48.152;11.530;2022-10-31T17:25:23;14.43;;;9.80;;
56599;SDS011;51832;48.152;11.530;2022-10-31T17:30:26;18.40;;;10.43;;
56599;SDS011;51832;48.152;11.530;2022-10-31T17:35:27;16.15;;;10.35;;
56599;SDS011;51832;48.152;11.530;2022-10-31T17:40:27;14.10;;;9.63;;
56599;SDS011;51832;48.152;11.530;2022-10-31T17:45:27;15.50;;;10.10;;
56599;SDS011;51832;48.152;11.530;2022-10-31T17:50:28;15.70;;;9.87;;
56599;SDS011;51832;48.152;11.530;2022-10-31T17:55:28;16.73;;;10.37;;
56599;SDS011;51832;48.152;11.530;2022-10-31T18:00:30;19.05;;;12.23;;
56599;SDS011;51832;48.152;11.530;2022-10-31T18:05:31;21.17;;;11.05;;
56599;SDS011;51832;48.152;11.530;2022-10-31T18:10:31;15.80;;;9.82;;
56599;SDS011;51832;48.152;11.530;2022-10-31T18:15:32;19.67;;;10.87;;
56599;SDS011;51832;48.152;11.530;2022-10-31T18:20:32;19.80;;;11.40;;
56599;SDS011;51832;48.152;11.530;2022-10-31T18:25:33;17.77;;;11.88;;
56599;SDS011;51832;48.152;11.530;2022-10-31T18:30:37;17.33;;;11.45;;
56599;SDS011;51832;48.152;11.530;2022-10-31T18:35:40;21.15;;;10.90;;
56599;SDS011;51832;48.152;11.530;2022-10-31T18:40:40;15.43;;;10.05;;
56599;SDS011;51832;48.152;11.530;2022-10-31T18:45:41;17.73;;;9.77;;
56599;SDS011;51832;48.152;11.530;2022-10-31T18:50:41;18.23;;;11.45;;
56599;SDS011;51832;48.152;11.530;2022-10-31T18:55:42;20.23;;;11.30;;
56599;SDS011;51832;48.152;11.530;2022-10-31T19:00:43;23.75;;;11.93;;
56599;SDS011;51832;48.152;11.530;2022-10-31T19:05:44;22.13;;;11.75;;
56599;SDS011;51832;48.152;11.530;2022-10-31T19:10:45;15.77;;;10.90;;
56599;SDS011;51832;48.152;11.530;2022-10-31T19:15:45;26.27;;;11.20;;
56599;SDS011;51832;48.152;11.530;2022-10-31T19:20:46;17.23;;;11.95;;
56599;SDS011;51832;48.152;11.530;2022-10-31T19:25:46;16.10;;;11.52;;
56599;SDS011;51832;48.152;11.530;2022-10-31T19:30:56;22.88;;;12.40;;
56599;SDS011;51832;48.152;11.530;2022-10-31T19:35:58;23.58;;;13.98;;
56599;SDS011;51832;48.152;11.530;2022-10-31T19:41:00;22.13;;;15.03;;
56599;SDS011;51832;48.152;11.530;2022-10-31T19:46:03;22.92;;;14.45;;
56599;SDS011;51832;48.152;11.530;2022-10-31T19:51:06;19.85;;;13.82;;
56599;SDS011;51832;48.152;11.530;2022-10-31T19:56:12;23.92;;;15.02;;
56599;SDS011;51832;48.152;11.530;2022-10-31T20:01:15;24.80;;;14.45;;
56599;SDS011;51832;48.152;11.530;2022-10-31T20:06:29;22.70;;;15.63;;
56599;SDS011;51832;48.152;11.530;2022-10-31T20:11:31;23.00;;;14.82;;
56599;SDS011;51832;48.152;11.530;2022-10-31T20:16:31;27.20;;;16.80;;
56599;SDS011;51832;48.152;11.530;2022-10-31T20:21:34;25.30;;;16.08;;
56599;SDS011;51832;48.152;11.530;2022-10-31T20:26:38;22.65;;;15.60;;
56599;SDS011;51832;48.152;11.530;2022-10-31T20:31:39;24.43;;;16.37;;
56599;SDS011;51832;48.152;11.530;2022-10-31T20:36:40;27.88;;;16.92;;
56599;SDS011;51832;48.152;11.530;2022-10-31T20:41:41;24.77;;;15.95;;
56599;SDS011;51832;48.152;11.530;2022-10-31T20:46:41;25.50;;;16.30;;
56599;SDS011;51832;48.152;11.530;2022-10-31T20:51:41;25.00;;;15.07;;
56599;SDS011;51832;48.152;11.530;2022-10-31T20:56:42;23.77;;;14.32;;
56599;SDS011;51832;48.152;11.530;2022-10-31T21:01:42;23.48;;;13.65;;
56599;SDS011;51832;48.152;11.530;2022-10-31T21:06:43;19.63;;;12.90;;
56599;SDS011;51832;48.152;11.530;2022-10-31T21:11:43;22.50;;;13.63;;
56599;SDS011;51832;48.152;11.530;2022-10-31T21:16:44;17.65;;;10.80;;
56599;SDS011;51832;48.152;11.530;2022-10-31T21:21:44;18.00;;;11.15;;
56599;SDS011;51832;48.152;11.530;2022-10-31T21:26:46;14.63;;;9.77;;
56599;SDS011;51832;48.152;11.530;2022-10-31T21:31:48;15.63;;;10.63;;
56599;SDS011;51832;48.152;11.530;2022-10-31T21:36:49;12.70;;;9.05;;
56599;SDS011;51832;48.152;11.530;2022-10-31T21:41:49;14.20;;;9.30;;
56599;SDS011;51832;48.152;11.530;2022-10-31T21:46:49;14.40;;;8.75;;
56599;SDS011;51832;48.152;11.530;2022-10-31T21:51:50;14.00;;;9.07;;
56599;SDS011;51832;48.152;11.530;2022-10-31T21:56:50;13.10;;;7.90;;
56599;SDS011;51832;48.152;11.530;2022-10-31T22:01:51;15.20;;;7.80;;
56599;SDS011;51832;48.152;11.530;2022-10-31T22:06:52;9.30;;;6.35;;
56599;SDS011;51832;48.152;11.530;2022-10-31T22:11:53;10.38;;;6.68;;
56599;SDS011;51832;48.152;11.530;2022-10-31T22:16:53;12.10;;;7.38;;
56599;SDS011;51832;48.152;11.530;2022-10-31T22:21:53;15.83;;;7.37;;
56599;SDS011;51832;48.152;11.530;2022-10-31T22:26:54;12.17;;;7.50;;
56599;SDS011;51832;48.152;11.530;2022-10-31T22:31:54;16.35;;;6.93;;
56599;SDS011;51832;48.152;11.530;2022-10-31T22:36:55;11.85;;;6.60;;
56599;SDS011;51832;48.152;11.530;2022-10-31T22:41:55;13.52;;;6.90;;
56599;SDS011;51832;48.152;11.530;2022-10-31T22:46:56;11.25;;;6.43;;
56599;SDS011;51832;48.152;11.530;2022-10-31T22:51:56;11.90;;;6.75;;
56599;SDS011;51832;48.152;11.530;2022-10-31T22:57:00;11.38;;;6.55;;
56599;SDS011;51832;48.152;11.530;2022-10-31T23:02:00;14.93;;;8.18;;
56599;SDS011;51832;48.152;11.530;2022-10-31T23:07:01;14.27;;;7.13;;
56599;SDS011;51832;48.152;11.530;2022-10-31T23:12:02;11.45;;;7.35;;
56599;SDS011;51832;48.152;11.530;2022-10-31T23:17:21;12.68;;;7.45;;
56599;SDS011;51832;48.152;11.530;2022-10-31T23:22:21;10.68;;;7.07;;
56599;SDS011;51832;48.152;11.530;2022-10-31T23:27:23;14.02;;;7.72;;
56599;SDS011;51832;48.152;11.530;2022-10-31T23:32:27;9.52;;;5.50;;
56599;SDS011;51832;48.152;11.530;2022-10-31T23:37:34;10.70;;;5.55;;
56599;SDS011;51832;48.152;11.530;2022-10-31T23:42:36;9.05;;;5.30;;
56599;SDS011;51832;48.152;11.530;2022-10-31T23:47:36;12.23;;;6.25;;
56599;SDS011;51832;48.152;11.530;2022-10-31T23:52:37;15.38;;;6.78;;
56599;SDS011;51832;48.152;11.530;2022-10-31T23:57:37;14.75;;;7.47;;
